MZT weather

General Rafael Buelna International Airport
Mazatlán, Sinaloa, Mexico

Public forecast

Using degrees Celsius for public forecast. Weather courtesy of forecast.io.

METAR (pilot weather report)

Retrieved 2019/04/24 23:43 UTC (25 minutes ago):

MMMZ 242343Z 28009KT 15SM BKN240 27/17 A2982 RMK SLP090 57010 966 8/002

TAF (pilot weather forecast)

Forecast is more than 12 hours old.

Retrieved 2019/04/24 00:06 UTC (1 day ago):

TAF MMMZ 242259Z 2500/2606 29010KT P6SM BKN200 TX29/2520Z TN16/2512Z FM250900 00000KT 3SM BR SCT010 TEMPO 2510/2514 1SM BR FM251600 20010KT P6SM BKN300